createdAt,value
2018-06-04T00:00:00.296Z,17.17
2018-06-04T00:02:29.946Z,17.14
2018-06-04T00:04:59.096Z,17.09
2018-06-04T00:07:28.255Z,17.06
2018-06-04T00:09:57.824Z,17.04
2018-06-04T00:12:26.974Z,17.02
2018-06-04T00:14:56.116Z,17.01
2018-06-04T00:17:25.260Z,17.01
2018-06-04T00:19:54.428Z,16.98
2018-06-04T00:22:23.643Z,16.96
2018-06-04T00:24:52.801Z,16.95
2018-06-04T00:27:21.982Z,16.90
2018-06-04T00:29:51.132Z,16.88
2018-06-04T00:32:20.285Z,16.86
2018-06-04T00:34:49.435Z,16.84
2018-06-04T00:37:18.584Z,16.84
2018-06-04T00:39:47.741Z,16.82
2018-06-04T00:42:16.877Z,16.82
2018-06-04T00:44:46.038Z,16.78
2018-06-04T00:47:15.204Z,16.71
2018-06-04T00:49:44.368Z,16.65
2018-06-04T00:52:13.562Z,16.62
2018-06-04T00:54:42.733Z,16.59
2018-06-04T00:57:11.867Z,16.59
2018-06-04T00:59:41.067Z,16.59
2018-06-04T01:02:10.242Z,16.58
2018-06-04T01:04:39.391Z,16.56
2018-06-04T01:07:08.737Z,16.52
2018-06-04T01:09:38.150Z,16.50
2018-06-04T01:12:07.355Z,16.49
2018-06-04T01:14:36.572Z,16.48
2018-06-04T01:17:05.840Z,16.47
2018-06-04T01:19:34.979Z,16.43
2018-06-04T01:22:04.187Z,16.41
2018-06-04T01:24:33.362Z,16.37
2018-06-04T01:27:02.515Z,16.31
2018-06-04T01:29:31.736Z,16.29
2018-06-04T01:32:00.902Z,16.27
2018-06-04T01:34:30.042Z,16.23
2018-06-04T01:36:59.210Z,16.21
2018-06-04T01:39:28.353Z,16.19
2018-06-04T01:41:57.497Z,16.18
2018-06-04T01:44:26.646Z,16.17
2018-06-04T01:46:55.814Z,16.17
2018-06-04T01:49:24.962Z,16.14
2018-06-04T01:51:54.125Z,16.07
2018-06-04T01:54:23.279Z,16.06
2018-06-04T01:56:52.443Z,15.62
2018-06-04T01:59:21.580Z,16.00
2018-06-04T02:01:50.810Z,15.98
2018-06-04T02:04:20.008Z,15.98
2018-06-04T02:06:49.145Z,15.97
2018-06-04T02:09:18.300Z,15.93
2018-06-04T02:11:47.470Z,15.91
2018-06-04T02:14:16.616Z,15.87
2018-06-04T02:16:45.777Z,15.86
2018-06-04T02:19:16.299Z,15.83
2018-06-04T02:21:45.450Z,15.82
2018-06-04T02:24:14.614Z,15.80
2018-06-04T02:26:43.783Z,15.78
2018-06-04T02:29:12.952Z,15.74
2018-06-04T02:31:42.755Z,15.72
2018-06-04T02:34:11.917Z,15.70
2018-06-04T02:36:41.156Z,15.66
2018-06-04T02:39:10.632Z,15.61
2018-06-04T02:41:39.769Z,15.59
2018-06-04T02:44:08.927Z,15.58
2018-06-04T02:46:38.561Z,15.56
2018-06-04T02:49:07.970Z,15.54
2018-06-04T02:51:37.113Z,15.54
2018-06-04T02:54:06.299Z,15.51
2018-06-04T02:56:35.467Z,15.50
2018-06-04T02:59:04.684Z,15.50
2018-06-04T03:01:33.825Z,15.52
2018-06-04T03:04:03.025Z,15.53
2018-06-04T03:06:32.167Z,15.52
2018-06-04T03:09:01.305Z,15.55
2018-06-04T03:11:30.494Z,15.51
2018-06-04T03:13:59.650Z,15.49
2018-06-04T03:16:28.935Z,15.43
2018-06-04T03:18:58.101Z,15.45
2018-06-04T03:21:27.248Z,15.42
2018-06-04T03:23:56.425Z,15.40
2018-06-04T03:26:25.580Z,15.43
2018-06-04T03:28:54.763Z,15.45
2018-06-04T03:31:23.976Z,15.46
2018-06-04T03:33:53.128Z,15.49
2018-06-04T03:36:22.293Z,15.51
2018-06-04T03:38:51.433Z,15.54
2018-06-04T03:41:20.658Z,15.58
2018-06-04T03:43:49.819Z,15.59
2018-06-04T03:46:18.994Z,15.63
2018-06-04T03:48:48.219Z,15.66
2018-06-04T03:51:17.383Z,15.69
2018-06-04T03:53:46.543Z,15.74
2018-06-04T03:56:15.721Z,15.80
2018-06-04T03:58:44.857Z,15.86
2018-06-04T04:01:14.040Z,15.91
2018-06-04T04:03:43.194Z,15.98
2018-06-04T04:06:12.355Z,16.07
2018-06-04T04:08:41.511Z,16.16
2018-06-04T04:11:10.683Z,16.25
2018-06-04T04:13:39.819Z,16.35
2018-06-04T04:16:09.049Z,16.48
2018-06-04T04:18:38.210Z,16.57
2018-06-04T04:21:07.561Z,16.64
2018-06-04T04:23:36.715Z,16.71
2018-06-04T04:26:05.886Z,16.77
2018-06-04T04:28:35.086Z,16.86
2018-06-04T04:31:04.329Z,16.95
2018-06-04T04:33:33.481Z,17.01
2018-06-04T04:36:02.623Z,17.06
2018-06-04T04:38:31.758Z,17.16
2018-06-04T04:41:00.938Z,17.22
2018-06-04T04:43:30.096Z,17.28
2018-06-04T04:45:59.261Z,17.34
2018-06-04T04:48:28.403Z,17.38
2018-06-04T04:50:58.390Z,17.51
2018-06-04T04:53:27.570Z,17.60
2018-06-04T04:55:56.696Z,17.65
2018-06-04T04:58:25.882Z,17.71
2018-06-04T05:00:55.113Z,17.75
2018-06-04T05:03:24.238Z,17.81
2018-06-04T05:05:53.387Z,17.89
2018-06-04T05:08:22.632Z,17.93
2018-06-04T05:10:51.819Z,18.01
2018-06-04T05:13:21.037Z,18.13
2018-06-04T05:15:50.171Z,18.16
2018-06-04T05:18:19.431Z,18.24
2018-06-04T05:20:48.589Z,18.35
2018-06-04T05:23:17.751Z,18.44
2018-06-04T05:25:47.083Z,18.52
2018-06-04T05:28:16.243Z,18.62
2018-06-04T05:30:45.376Z,18.69
2018-06-04T05:33:14.926Z,18.70
2018-06-04T05:35:44.125Z,18.82
2018-06-04T05:38:13.319Z,18.93
2018-06-04T05:40:42.462Z,19.00
2018-06-04T05:43:11.663Z,19.13
2018-06-04T05:45:40.829Z,19.25
2018-06-04T05:48:10.268Z,19.33
2018-06-04T05:50:39.429Z,19.34
2018-06-04T05:53:08.832Z,19.46
2018-06-04T05:55:38.849Z,19.57
2018-06-04T05:58:07.998Z,19.74
2018-06-04T06:00:37.247Z,19.91
2018-06-04T06:03:06.477Z,20.01
2018-06-04T06:05:35.622Z,20.14
2018-06-04T06:08:04.994Z,19.70
2018-06-04T06:10:34.291Z,20.38
2018-06-04T06:13:03.515Z,20.41
2018-06-04T06:15:32.717Z,20.41
2018-06-04T06:18:01.891Z,20.50
2018-06-04T06:20:31.098Z,20.61
2018-06-04T06:23:00.326Z,20.75
2018-06-04T06:25:29.548Z,20.88
2018-06-04T06:27:58.617Z,20.97
2018-06-04T06:30:27.758Z,21.02
2018-06-04T06:32:56.883Z,21.09
2018-06-04T06:35:26.081Z,21.05
2018-06-04T06:37:55.382Z,21.20
2018-06-04T06:40:25.299Z,21.37
2018-06-04T06:42:54.623Z,21.52
2018-06-04T06:45:23.910Z,21.69
2018-06-04T06:47:54.728Z,21.81
2018-06-04T06:50:23.984Z,21.82
2018-06-04T06:52:53.197Z,21.79
2018-06-04T06:55:22.410Z,21.90
2018-06-04T06:57:51.559Z,21.79
2018-06-04T07:00:20.796Z,21.82
2018-06-04T07:02:50.030Z,21.99
2018-06-04T07:05:19.219Z,22.11
2018-06-04T07:07:48.941Z,22.33
2018-06-04T07:10:18.165Z,22.39
2018-06-04T07:12:47.374Z,22.61
2018-06-04T07:15:16.616Z,22.62
2018-06-04T07:17:45.864Z,22.68
2018-06-04T07:20:15.013Z,22.82
2018-06-04T07:22:44.165Z,22.82
2018-06-04T07:25:13.449Z,22.92
2018-06-04T07:27:42.695Z,23.08
2018-06-04T07:30:11.927Z,23.17
2018-06-04T07:32:41.089Z,23.37
2018-06-04T07:35:10.344Z,23.48
2018-06-04T07:37:39.591Z,23.53
2018-06-04T07:40:09.306Z,23.62
2018-06-04T07:42:38.603Z,23.80
2018-06-04T07:45:08.243Z,23.88
2018-06-04T07:47:37.484Z,23.90
2018-06-04T07:50:06.814Z,24.00
2018-06-04T07:52:36.022Z,24.14
2018-06-04T07:55:05.356Z,24.19
2018-06-04T07:57:35.351Z,24.21
2018-06-04T08:00:05.145Z,24.49
2018-06-04T08:02:34.311Z,24.60
2018-06-04T08:05:03.622Z,24.52
2018-06-04T08:07:32.812Z,24.66
2018-06-04T08:10:02.122Z,24.77
2018-06-04T08:12:31.266Z,24.86
2018-06-04T08:15:00.432Z,24.75
2018-06-04T08:17:29.590Z,24.71
2018-06-04T08:19:58.734Z,24.82
2018-06-04T08:22:27.914Z,24.92
2018-06-04T08:24:57.203Z,25.09
2018-06-04T08:27:26.406Z,25.22
2018-06-04T08:29:55.619Z,25.22
2018-06-04T08:32:24.847Z,25.25
2018-06-04T08:34:53.991Z,25.34
2018-06-04T08:37:23.174Z,25.27
2018-06-04T08:39:52.359Z,25.46
2018-06-04T08:42:22.128Z,25.57
2018-06-04T08:44:51.285Z,25.65
2018-06-04T08:47:20.463Z,25.76
2018-06-04T08:49:49.707Z,25.84
2018-06-04T08:52:18.840Z,25.67
2018-06-04T08:54:48.118Z,25.72
2018-06-04T08:57:17.303Z,25.81
2018-06-04T08:59:46.595Z,25.78
2018-06-04T09:02:15.855Z,25.99
2018-06-04T09:04:45.032Z,26.13
2018-06-04T09:07:14.254Z,25.92
2018-06-04T09:09:43.494Z,26.07
2018-06-04T09:12:12.765Z,26.10
2018-06-04T09:14:42.525Z,26.27
2018-06-04T09:17:11.685Z,26.40
2018-06-04T09:19:41.730Z,26.40
2018-06-04T09:22:10.965Z,26.56
2018-06-04T09:24:40.791Z,26.70
2018-06-04T09:27:10.121Z,26.79
2018-06-04T09:29:39.289Z,26.85
2018-06-04T09:32:08.435Z,26.86
2018-06-04T09:34:37.636Z,26.80
2018-06-04T09:37:06.973Z,26.73
2018-06-04T09:39:36.163Z,27.01
2018-06-04T09:42:05.394Z,27.21
2018-06-04T09:44:34.523Z,27.35
2018-06-04T09:47:03.938Z,27.29
2018-06-04T09:49:33.248Z,27.46
2018-06-04T09:52:02.433Z,27.50
2018-06-04T09:54:31.646Z,27.54
2018-06-04T09:57:00.810Z,27.46
2018-06-04T09:59:29.978Z,27.62
2018-06-04T10:01:59.150Z,27.85
2018-06-04T10:04:28.293Z,27.76
2018-06-04T10:06:57.448Z,27.79
2018-06-04T10:09:26.650Z,27.83
2018-06-04T10:11:55.798Z,27.97
2018-06-04T10:14:24.972Z,27.70
2018-06-04T10:16:54.157Z,27.72
2018-06-04T10:19:23.417Z,27.68
2018-06-04T10:21:52.605Z,27.64
2018-06-04T10:24:21.766Z,27.92
2018-06-04T10:26:51.033Z,28.01
2018-06-04T10:29:20.232Z,28.20
2018-06-04T10:31:49.391Z,28.41
2018-06-04T10:34:18.555Z,28.27
2018-06-04T10:36:47.748Z,28.30
2018-06-04T10:39:17.019Z,28.35
2018-06-04T10:41:46.202Z,28.31
2018-06-04T10:44:15.360Z,28.28
2018-06-04T10:46:44.529Z,28.27
2018-06-04T10:49:13.709Z,28.59
2018-06-04T10:51:42.864Z,28.77
2018-06-04T10:54:12.297Z,28.76
2018-06-04T10:56:41.500Z,28.74
2018-06-04T10:59:10.661Z,28.84
2018-06-04T11:01:39.813Z,28.92
2018-06-04T11:04:09.026Z,28.67
2018-06-04T11:06:38.214Z,28.78
2018-06-04T11:09:09.332Z,29.03
2018-06-04T11:11:38.477Z,29.05
2018-06-04T11:14:07.715Z,28.94
2018-06-04T11:16:36.995Z,29.09
2018-06-04T11:19:06.375Z,28.98
2018-06-04T11:21:35.607Z,29.12
2018-06-04T11:24:04.773Z,29.34
2018-06-04T11:26:33.966Z,29.37
2018-06-04T11:29:03.230Z,29.26
2018-06-04T11:31:32.403Z,29.58
2018-06-04T11:34:01.601Z,29.60
2018-06-04T11:36:30.732Z,29.63
2018-06-04T11:38:59.982Z,29.72
2018-06-04T11:41:29.217Z,29.57
2018-06-04T11:43:58.425Z,29.50
2018-06-04T11:46:28.385Z,29.56
2018-06-04T11:48:58.065Z,29.43
2018-06-04T11:51:27.378Z,29.51
2018-06-04T11:53:56.816Z,29.51
2018-06-04T11:56:26.077Z,29.37
2018-06-04T11:58:55.191Z,29.32
2018-06-04T12:01:24.349Z,29.55
2018-06-04T12:03:53.515Z,29.56
2018-06-04T12:06:23.335Z,29.73
2018-06-04T12:08:52.542Z,29.88
2018-06-04T12:11:21.673Z,29.79
2018-06-04T12:13:50.891Z,29.93
2018-06-04T12:16:20.037Z,29.23
2018-06-04T12:18:49.210Z,29.05
2018-06-04T12:21:18.428Z,29.11
2018-06-04T12:23:48.636Z,29.11
2018-06-04T12:26:18.643Z,29.37
2018-06-04T12:28:48.086Z,29.75
2018-06-04T12:31:17.318Z,29.88
2018-06-04T12:33:46.452Z,29.61
2018-06-04T12:36:15.717Z,29.66
2018-06-04T12:38:44.885Z,29.95
2018-06-04T12:41:14.065Z,30.09
2018-06-04T12:43:43.241Z,29.96
2018-06-04T12:46:12.400Z,29.90
2018-06-04T12:48:41.563Z,29.69
2018-06-04T12:51:10.852Z,29.90
2018-06-04T12:53:40.057Z,29.82
2018-06-04T12:56:09.407Z,29.69
2018-06-04T12:58:38.558Z,29.82
2018-06-04T13:01:07.736Z,29.66
2018-06-04T13:03:36.850Z,29.65
2018-06-04T13:06:06.081Z,29.48
2018-06-04T13:08:35.256Z,29.48
2018-06-04T13:11:04.418Z,29.35
2018-06-04T13:13:33.870Z,29.06
2018-06-04T13:16:03.088Z,29.02
2018-06-04T13:18:32.237Z,28.94
2018-06-04T13:21:01.397Z,28.88
2018-06-04T13:23:30.542Z,28.92
2018-06-04T13:25:59.716Z,28.83
2018-06-04T13:28:28.871Z,28.88
2018-06-04T13:30:57.967Z,28.87
2018-06-04T13:33:27.117Z,28.88
2018-06-04T13:35:56.217Z,28.83
2018-06-04T13:38:25.393Z,28.72
2018-06-04T13:40:54.535Z,28.76
2018-06-04T13:43:23.685Z,28.75
2018-06-04T13:45:52.935Z,28.73
2018-06-04T13:48:23.539Z,28.82
2018-06-04T13:50:52.670Z,28.95
2018-06-04T13:53:21.836Z,28.71
2018-06-04T13:55:50.981Z,28.80
2018-06-04T13:58:20.133Z,28.69
2018-06-04T14:00:49.303Z,28.67
2018-06-04T14:03:18.468Z,28.74
2018-06-04T14:05:47.768Z,28.87
2018-06-04T14:08:16.928Z,28.75
2018-06-04T14:10:46.065Z,28.69
2018-06-04T14:13:15.301Z,28.69
2018-06-04T14:15:44.472Z,28.58
2018-06-04T14:18:13.606Z,28.75
2018-06-04T14:20:42.712Z,28.86
2018-06-04T14:23:11.856Z,28.82
2018-06-04T14:25:41.095Z,28.78
2018-06-04T14:28:10.264Z,28.79
2018-06-04T14:30:39.454Z,28.76
2018-06-04T14:33:08.728Z,28.84
2018-06-04T14:35:37.837Z,28.80
2018-06-04T14:38:07.009Z,28.80
2018-06-04T14:40:36.291Z,28.53
2018-06-04T14:43:05.460Z,28.49
2018-06-04T14:45:34.698Z,28.59
2018-06-04T14:48:03.817Z,28.61
2018-06-04T14:50:33.078Z,28.54
2018-06-04T14:53:02.711Z,28.27
2018-06-04T14:55:32.013Z,28.03
2018-06-04T14:58:01.186Z,27.95
2018-06-04T15:00:30.334Z,27.88
2018-06-04T15:02:59.497Z,27.87
2018-06-04T15:05:28.819Z,27.85
2018-06-04T15:07:58.145Z,27.81
2018-06-04T15:10:27.334Z,27.85
2018-06-04T15:12:56.502Z,27.91
2018-06-04T15:15:25.771Z,27.88
2018-06-04T15:17:55.005Z,27.83
2018-06-04T15:20:24.277Z,27.85
2018-06-04T15:22:53.475Z,27.79
2018-06-04T15:25:22.760Z,27.88
2018-06-04T15:27:51.890Z,27.93
2018-06-04T15:30:21.090Z,27.91
2018-06-04T15:32:50.389Z,27.88
2018-06-04T15:35:19.616Z,27.90
2018-06-04T15:37:48.895Z,27.95
2018-06-04T15:40:18.033Z,28.09
2018-06-04T15:42:47.220Z,28.11
2018-06-04T15:45:16.378Z,28.17
2018-06-04T15:47:45.651Z,27.94
2018-06-04T15:50:15.185Z,28.09
2018-06-04T15:52:44.358Z,28.12
2018-06-04T15:55:13.478Z,28.18
2018-06-04T15:57:42.882Z,28.29
2018-06-04T16:00:12.205Z,28.33
2018-06-04T16:02:41.419Z,28.40
2018-06-04T16:05:11.066Z,28.28
2018-06-04T16:07:40.258Z,28.32
2018-06-04T16:10:10.052Z,28.15
2018-06-04T16:12:39.213Z,28.10
2018-06-04T16:15:08.674Z,28.07
2018-06-04T16:17:38.208Z,28.08
2018-06-04T16:20:07.398Z,28.11
2018-06-04T16:22:36.557Z,28.14
2018-06-04T16:25:05.889Z,28.18
2018-06-04T16:27:35.242Z,28.12
2018-06-04T16:30:04.522Z,28.18
2018-06-04T16:32:33.688Z,28.13
2018-06-04T16:35:02.925Z,28.16
2018-06-04T16:37:32.220Z,28.10
2018-06-04T16:40:01.346Z,28.08
2018-06-04T16:42:30.532Z,28.04
2018-06-04T16:44:59.708Z,28.07
2018-06-04T16:47:28.965Z,28.05
2018-06-04T16:49:58.106Z,27.97
2018-06-04T16:52:27.306Z,27.80
2018-06-04T16:54:56.488Z,27.83
2018-06-04T16:57:25.652Z,27.71
2018-06-04T16:59:54.849Z,27.70
2018-06-04T17:02:24.043Z,27.60
2018-06-04T17:04:53.141Z,27.63
2018-06-04T17:07:22.318Z,27.68
2018-06-04T17:09:51.446Z,27.65
2018-06-04T17:12:20.610Z,27.55
2018-06-04T17:14:50.260Z,27.49
2018-06-04T17:17:19.443Z,27.40
2018-06-04T17:19:48.615Z,27.42
2018-06-04T17:22:17.814Z,27.36
2018-06-04T17:24:47.054Z,27.32
2018-06-04T17:27:16.314Z,27.33
2018-06-04T17:29:45.469Z,27.24
2018-06-04T17:32:14.637Z,27.21
2018-06-04T17:34:43.840Z,27.14
2018-06-04T17:37:13.492Z,27.10
2018-06-04T17:39:42.687Z,27.01
2018-06-04T17:42:11.937Z,26.93
2018-06-04T17:44:41.337Z,26.92
2018-06-04T17:47:10.646Z,26.84
2018-06-04T17:49:40.490Z,26.78
2018-06-04T17:52:09.707Z,26.63
2018-06-04T17:54:38.953Z,26.62
2018-06-04T17:57:08.291Z,26.55
2018-06-04T17:59:37.857Z,26.44
2018-06-04T18:02:07.578Z,26.35
2018-06-04T18:04:36.712Z,26.10
2018-06-04T18:07:07.597Z,25.95
2018-06-04T18:09:36.756Z,25.84
2018-06-04T18:12:06.056Z,25.70
2018-06-04T18:14:36.815Z,25.64
2018-06-04T18:17:06.393Z,25.54
2018-06-04T18:19:36.466Z,25.44
2018-06-04T18:22:05.900Z,25.33
2018-06-04T18:24:35.201Z,25.26
2018-06-04T18:27:04.429Z,25.23
2018-06-04T18:29:33.849Z,25.18
2018-06-04T18:32:03.048Z,25.15
2018-06-04T18:34:32.256Z,25.08
2018-06-04T18:37:01.463Z,24.98
2018-06-04T18:39:30.639Z,24.79
2018-06-04T18:41:59.777Z,24.68
2018-06-04T18:44:28.987Z,24.56
2018-06-04T18:46:58.296Z,24.46
2018-06-04T18:49:27.606Z,24.40
2018-06-04T18:51:56.763Z,24.32
2018-06-04T18:54:25.897Z,24.28
2018-06-04T18:56:55.086Z,24.15
2018-06-04T18:59:24.330Z,24.00
2018-06-04T19:01:53.516Z,23.90
2018-06-04T19:04:22.721Z,23.87
2018-06-04T19:06:51.965Z,23.75
2018-06-04T19:09:21.197Z,23.63
2018-06-04T19:11:50.321Z,23.56
2018-06-04T19:14:19.498Z,23.46
2018-06-04T19:16:48.639Z,23.38
2018-06-04T19:19:17.776Z,23.30
2018-06-04T19:21:47.161Z,23.20
2018-06-04T19:24:16.313Z,23.08
2018-06-04T19:26:45.454Z,22.98
2018-06-04T19:29:14.649Z,22.90
2018-06-04T19:31:45.137Z,22.81
2018-06-04T19:34:14.333Z,22.70
2018-06-04T19:36:43.477Z,22.63
2018-06-04T19:39:12.670Z,22.52
2018-06-04T19:41:41.832Z,22.43
2018-06-04T19:44:11.184Z,22.34
2018-06-04T19:46:40.705Z,22.28
2018-06-04T19:49:09.841Z,22.22
2018-06-04T19:51:39.139Z,22.11
2018-06-04T19:54:08.237Z,22.02
2018-06-04T19:56:37.386Z,21.95
2018-06-04T19:59:06.537Z,21.92
2018-06-04T20:01:36.169Z,21.89
2018-06-04T20:04:05.484Z,21.83
2018-06-04T20:06:34.609Z,21.45
2018-06-04T20:09:04.040Z,21.70
2018-06-04T20:11:33.174Z,21.63
2018-06-04T20:14:02.338Z,21.55
2018-06-04T20:16:31.570Z,21.50
2018-06-04T20:19:00.698Z,21.42
2018-06-04T20:21:30.163Z,21.34
2018-06-04T20:23:59.405Z,21.26
2018-06-04T20:26:28.529Z,21.20
2018-06-04T20:28:57.853Z,21.17
2018-06-04T20:31:27.042Z,21.15
2018-06-04T20:33:56.176Z,21.14
2018-06-04T20:36:25.347Z,21.10
2018-06-04T20:38:54.481Z,21.09
2018-06-04T20:41:23.621Z,21.12
2018-06-04T20:43:52.734Z,21.08
2018-06-04T20:46:21.922Z,21.06
2018-06-04T20:48:51.098Z,21.02
2018-06-04T20:51:20.239Z,20.98
2018-06-04T20:53:49.360Z,20.94
2018-06-04T20:56:18.503Z,20.88
2018-06-04T20:58:47.604Z,20.83
2018-06-04T21:01:16.740Z,20.80
2018-06-04T21:03:46.277Z,20.74
2018-06-04T21:06:15.406Z,20.66
2018-06-04T21:08:45.155Z,20.59
2018-06-04T21:11:14.285Z,20.51
2018-06-04T21:13:43.429Z,20.45
2018-06-04T21:16:12.569Z,20.39
2018-06-04T21:18:41.684Z,20.37
2018-06-04T21:21:10.820Z,20.35
2018-06-04T21:23:40.005Z,20.32
2018-06-04T21:26:09.133Z,20.27
2018-06-04T21:28:38.274Z,20.23
2018-06-04T21:31:07.737Z,20.18
2018-06-04T21:33:36.878Z,20.14
2018-06-04T21:36:06.116Z,20.11
2018-06-04T21:38:35.232Z,20.08
2018-06-04T21:41:04.395Z,20.05
2018-06-04T21:43:33.518Z,20.02
2018-06-04T21:46:02.745Z,20.00
2018-06-04T21:48:31.897Z,19.94
2018-06-04T21:51:01.034Z,19.92
2018-06-04T21:53:30.312Z,19.87
2018-06-04T21:55:59.810Z,19.81
2018-06-04T21:58:28.970Z,19.73
2018-06-04T22:00:58.118Z,19.65
2018-06-04T22:03:27.236Z,19.61
2018-06-04T22:05:56.380Z,19.59
2018-06-04T22:08:25.568Z,19.58
2018-06-04T22:10:54.669Z,19.56
2018-06-04T22:13:23.799Z,19.55
2018-06-04T22:15:53.368Z,19.50
2018-06-04T22:18:22.720Z,19.42
2018-06-04T22:20:51.909Z,19.32
2018-06-04T22:23:21.021Z,19.28
2018-06-04T22:25:50.158Z,19.25
2018-06-04T22:28:19.252Z,19.23
2018-06-04T22:30:48.387Z,19.21
2018-06-04T22:33:17.497Z,19.19
2018-06-04T22:35:46.633Z,19.11
2018-06-04T22:38:15.777Z,18.98
2018-06-04T22:40:44.886Z,18.90
2018-06-04T22:43:14.025Z,18.82
2018-06-04T22:45:43.155Z,18.75
2018-06-04T22:48:12.263Z,18.74
2018-06-04T22:50:41.379Z,18.73
2018-06-04T22:53:10.554Z,18.67
2018-06-04T22:55:39.709Z,18.66
2018-06-04T22:58:08.861Z,18.61
2018-06-04T23:00:37.976Z,18.55
2018-06-04T23:03:07.274Z,18.55
2018-06-04T23:05:36.406Z,18.50
2018-06-04T23:08:05.558Z,18.45
2018-06-04T23:10:34.714Z,18.40
2018-06-04T23:13:03.841Z,18.35
2018-06-04T23:15:32.945Z,18.30
2018-06-04T23:18:02.092Z,18.23
2018-06-04T23:20:31.212Z,18.15
2018-06-04T23:23:00.400Z,18.12
2018-06-04T23:25:29.533Z,18.12
2018-06-04T23:27:58.649Z,18.12
2018-06-04T23:30:27.813Z,18.11
2018-06-04T23:32:56.921Z,18.08
2018-06-04T23:35:26.090Z,18.05
2018-06-04T23:37:55.225Z,18.00
2018-06-04T23:40:24.481Z,17.96
2018-06-04T23:42:53.626Z,17.92
2018-06-04T23:45:22.782Z,17.89
2018-06-04T23:47:52.120Z,17.86
2018-06-04T23:50:21.272Z,17.83
2018-06-04T23:52:50.889Z,17.82
2018-06-04T23:55:20.061Z,17.82
2018-06-04T23:57:49.158Z,17.79
